KJXI

Fox Stephens Field - Gilmer Municipal Airport

Gilmer, Texas, USA
METAR KJXI 171415Z AUTO 00000KT 10SM OVC003 05/05 A3025 RMK AO2 T00530050
Observed Flight Rules
Dec-17 @ 14:15 UTC (15 minutes ago) Instrument Flight Rules
Visibility Clouds
10 miles
  • Overcast at 300' AGL
Temperatures Readings
Current 5°C / 41°F
Dewpoint 5°C / 41°F
Humidity 100%
Altimeter 30.25" Hg
Pressure 1024 hPa
Elevation 127
METAR KJXI 171415Z AUTO 00000KT 10SM OVC003 05/05 A3025 RMK AO2 T00530050
Observed Flight Rules
Dec-17 @ 14:15 UTC
(15 minutes ago)
LIFR
Clouds
  • Overcast at 300' AGL
Temperature Dewpoint
5°C / 41°F 5°C / 41°F
Humidity Altimeter Pressure
100% 30.25" Hg 1024 hPa